Chagrin Falls, OH (44023)

2:35 PM EDT on April 28, 2017 (GMT -0400)
Tanglewood - Bainbridge | | Change Station

Elev 1227 ft 41.40 °N, 81.33 °W | Updated 19 seconds ago

Mostly Cloudy
Mostly Cloudy
63.5 °F
Feels Like 63.5 °F
N
4.0
Wind Variable Wind from North

Today
High -- | Low -- °F
--% Chance of Precip.
Yesterday
High -- | Low -- °F
Precip. -- in
Pressure 30.05 in
Visibility 10.0 miles
Clouds Clear
Dew Point 47 °F
Humidity 55%
Rainfall Not available.
Snow Depth Not available.
6:26 AM 8:19 PM
Waxing Crescent, 8% visible
METAR KPOV 281814Z AUTO 18004KT 10SM CLR 17/07 A3005 RMK AO2 T01650065
Pressure 30.05 in
Visibility 10.0 miles
Clouds Clear
Dew Point 47 °F
Humidity 55%
Rainfall Not available.
Snow Depth Not available.
6:26 AM 8:19 PM
Waxing Crescent, 8% visible
METAR KPOV 281814Z AUTO 18004KT 10SM CLR 17/07 A3005 RMK AO2 T01650065

Get Severe Weather Alerts

Thanks for signing up!

Be on the lookout for a verification email in your inbox.

You'll start receiving the daily forecast at 8 AM.

×

10-Day Weather Forecast

Almanac

Astronomy

Apr. 28, 2017 Rise Set
Actual Time
Civil Twilight
Nautical Twilight
Astronomical Twilight
Moon
Length of Visible Light
Length of Day
Tomorrow will be .
, % of the Moon is Illuminated

Today's Extremes

State Highs State Lows

Community

WunderPhotos

WunderBlog® & News

Nearby

Air Quality

  Air Quality AQ Index Pollutant
Not available.

Snow Depth

Station Depth Elevation

Earthquake Activity

City Distance Mag. Time & Date
Minimum magnitude displayed is 2.5.

Coastal Water Temperatures

Place Temperature

Stations

Nearby Weather Stations

Station Location Temp. Windchill Dew Point Humidity Wind Precip. Elev Updated Type
                   

Watches & Warnings

There are currently no watches in effect.